NEODyS-2

Near Earth Objects - Dynamic Site
NEODyS ∴ Observatories ∴ Site J26 ∴ Obs & residuals
Contact »
J26  ▹ 
OBSERVATIONS AND RESIDUALS

J26-The Spaceguard Centre, Knighton

Detections | Residuals | Detections & Residuals

[1-79]

Designation T Tech N Date Right Ascension Declination Apparent Magnitude Star Catalog Site code χ Used A Used M
yr-mo-day precision hr:min:sec precision rms F bias residual deg min sec precision rms F bias residual mag/col rms residual
2009MC9 O C 2009-08-21.94308 1.000E-05 20:27:59.830 1.500E-01 1.020 F -0.136 0.959 -20° 45' 09.10" 1.000E-01 0.800 F -0.053 0.390 15.4 V 0.70 -0.56 c J26 1.06 Yes Yes
2009MC9 O C 2009-08-21.94383 1.000E-05 20:27:59.850 1.500E-01 1.020 F -0.136 -0.144 -20° 45' 06.70" 1.000E-01 0.800 F -0.053 -0.058 15.5 V 0.70 -0.46 c J26 0.16 Yes Yes
2009MC9 O C 2009-08-21.94799 1.000E-05 20:28:00.420 1.500E-01 1.020 F -0.136 0.175 -20° 44' 50.30" 1.000E-01 0.800 F -0.053 0.538 15.9 V 0.70 -0.06 c J26 0.70 Yes Yes
2009MC9 O C 2009-08-21.94944 1.000E-05 20:28:00.620 1.500E-01 1.020 F -0.136 0.305 -20° 44' 45.60" 1.000E-01 0.800 F -0.053 -0.272 16.2 V 0.70 0.24 c J26 0.45 Yes Yes
2000LC16 O C 2009-08-28.90909 1.000E-05 21:18:15.190 1.500E-01 0.883 F 0.001 -0.017 +00° 31' 19.10" 1.000E-01 0.693 F 0.451 0.186 14.8 V 0.70 0.23 c J26 0.27 Yes Yes
2000LC16 O C 2009-08-28.91339 1.000E-05 21:18:15.800 1.500E-01 0.883 F 0.001 0.349 +00° 31' 28.10" 1.000E-01 0.693 F 0.451 -0.330 14.7 V 0.70 0.13 c J26 0.62 Yes Yes
2000LC16 O C 2009-08-28.91596 1.000E-05 21:18:16.160 1.500E-01 0.883 F 0.001 0.502 +00° 31' 34.20" 1.000E-01 0.693 F 0.451 0.084 14.7 V 0.70 0.13 c J26 0.58 Yes Yes
Anteros O C 2009-09-09.92176 1.000E-05 22:07:16.240 1.500E-01 1.020 F 0.138 -0.432 +14° 23' 22.70" 1.000E-01 0.800 F 0.431 -0.935 16.1 V 0.70 -0.07 c J26 1.24 Yes Yes
Anteros O C 2009-09-09.92400 1.000E-05 22:07:16.070 1.500E-01 1.020 F 0.138 -0.530 +14° 23' 20.30" 1.000E-01 0.800 F 0.431 -0.869 16.1 V 0.70 -0.07 c J26 1.20 Yes Yes
Anteros O C 2009-09-09.92796 1.000E-05 22:07:15.780 1.500E-01 1.020 F 0.138 -0.552 +14° 23' 15.60" 1.000E-01 0.800 F 0.431 -1.206 16.1 V 0.70 -0.07 c J26 1.60 Yes Yes
Anteros O C 2009-09-09.93159 1.000E-05 22:07:15.530 1.500E-01 1.020 F 0.138 -0.340 +14° 23' 12.00" 1.000E-01 0.800 F 0.431 -0.806 15.9 V 0.70 -0.27 c J26 1.06 Yes Yes
Anteros O C 2009-09-20.93990 1.000E-05 21:57:36.240 1.500E-01 1.020 F 0.299 -0.276 +10° 57' 49.70" 1.000E-01 0.800 F 0.433 0.386 16.5 V 0.70 -0.03 c J26 0.55 Yes Yes
Anteros O C 2009-09-20.94188 1.000E-05 21:57:36.160 1.500E-01 1.020 F 0.299 -0.308 +10° 57' 47.10" 1.000E-01 0.800 F 0.433 -0.032 16.3 V 0.70 -0.23 c J26 0.30 Yes Yes
Anteros O C 2009-09-20.94448 1.000E-05 21:57:36.010 1.500E-01 1.020 F 0.299 -1.013 +10° 57' 43.40" 1.000E-01 0.800 F 0.433 -0.867 16.4 V 0.70 -0.13 c J26 1.47 Yes Yes
Anteros O C 2009-09-20.94810 1.000E-05 21:57:35.940 1.500E-01 1.020 F 0.299 0.049 +10° 57' 40.80" 1.000E-01 0.800 F 0.433 0.522 16.4 V 0.70 -0.13 c J26 0.65 Yes Yes
Anteros O C 2009-10-16.81530 1.000E-05 21:58:35.550 1.500E-01 0.883 F 0.197 -0.201 +04° 32' 05.20" 1.000E-01 0.693 F 0.637 0.840 17.5 V 0.70 -0.04 c J26 1.23 Yes Yes
Anteros O C 2009-10-16.81729 1.000E-05 21:58:35.660 1.500E-01 0.883 F 0.197 0.468 +04° 32' 01.80" 1.000E-01 0.693 F 0.637 -1.287 17.2 V 0.70 -0.34 c J26 1.93 Yes Yes
Anteros O C 2009-10-16.82208 1.000E-05 21:58:35.800 1.500E-01 0.883 F 0.197 0.214 +04° 31' 59.70" 1.000E-01 0.693 F 0.637 -0.324 17.0 V 0.70 -0.54 c J26 0.53 Yes Yes
2002XN14 O C 2009-12-18.94277 1.000E-05 03:50:39.180 1.500E-01 1.020 F -0.241 0.746 +15° 46' 58.70" 1.000E-01 0.800 F 0.472 1.394 16.1 C 0.70 -0.43 c J26 1.90 Yes Yes
2002XN14 O C 2009-12-18.94446 1.000E-05 03:50:39.530 1.500E-01 1.020 F -0.241 -0.105 +15° 47' 11.80" 1.000E-01 0.800 F 0.472 1.242 16.6 C 0.70 0.07 c J26 1.56 Yes Yes
2002XN14 O C 2009-12-18.94669 1.000E-05 03:50:40.100 1.500E-01 1.020 F -0.241 0.333 +15° 47' 28.50" 1.000E-01 0.800 F 0.472 0.460 16.5 C 0.70 -0.03 c J26 0.66 Yes Yes
2002XN14 O C 2009-12-18.94853 1.000E-05 03:50:40.610 1.500E-01 1.020 F -0.241 1.267 +15° 47' 43.40" 1.000E-01 0.800 F 0.472 0.939 16.6 C 0.70 0.07 c J26 1.72 Yes Yes
2001MZ7 O C 2010-01-22.99793 1.000E-05 08:09:09.210 1.500E-01 0.883 F 0.379 0.063 +06° 16' 11.50" 1.000E-01 0.693 F 0.165 0.604 13.7 C 0.70 0.41 c J26 0.88 Yes Yes
2001MZ7 O C 2010-01-23.00203 1.000E-05 08:09:09.060 1.500E-01 0.883 F 0.379 -0.180 +06° 16' 29.30" 1.000E-01 0.693 F 0.165 0.601 13.7 C 0.70 0.41 c J26 0.89 Yes Yes
2001MZ7 O C 2010-01-23.00424 1.000E-05 08:09:09.030 1.500E-01 0.883 F 0.379 0.447 +06° 16' 38.20" 1.000E-01 0.693 F 0.165 -0.096 13.7 C 0.70 0.41 c J26 0.52 Yes Yes
2004RA11 O C K 2010-03-04.97399 1.000E-05 09:08:29.950 1.500E-01 0.330 F -0.034 -3.115 -14° 54' 41.90" 1.000E-01 0.300 F -0.015 -3.550 17.7 C 0.70 -0.49 u J26 14.05 No Yes
Sigurd O C 2010-03-08.00297 1.000E-05 10:16:13.370 1.500E-01 0.572 F -0.099 -0.229 +31° 42' 37.10" 1.000E-01 0.520 F -0.002 -0.171 15.9 C 0.70 -0.30 u J26 0.52 Yes Yes
Sigurd O C 2010-03-08.00449 1.000E-05 10:16:13.050 1.500E-01 0.572 F -0.099 -0.568 +31° 42' 34.80" 1.000E-01 0.520 F -0.002 -0.286 16.8 C 0.70 0.60 u J26 1.14 Yes Yes
Sigurd O C 2010-03-08.00735 1.000E-05 10:16:12.520 1.500E-01 0.572 F -0.099 -0.286 +31° 42' 30.70" 1.000E-01 0.520 F -0.002 -0.275 16.9 C 0.70 0.70 u J26 0.73 Yes Yes
2001SK162 O C K 2010-03-11.81035 1.000E-05 06:20:37.110 1.500E-01 0.330 F -0.039 0.730 +18° 48' 17.30" 1.000E-01 0.300 F 0.031 0.209 16.9 C 0.70 -0.45 u J26 2.36 Yes Yes
2005YU55 O C 2010-04-11.92616 1.000E-05 13:12:29.660 1.500E-01 0.866 F 0.127 -1.039 -04° 43' 54.20" 1.000E-01 0.710 F 0.120 -0.312 16.2 V 0.70 0.18 o J26 1.28 Yes Yes
2005YU55 O C 2010-04-11.95994 1.000E-05 13:12:15.080 1.500E-01 0.866 F 0.127 0.248 -04° 42' 06.10" 1.000E-01 0.710 F 0.120 0.264 16.3 V 0.70 0.29 o J26 0.47 Yes Yes
2005YU55 O C 2010-04-12.00247 1.000E-05 13:11:56.340 1.500E-01 0.866 F 0.127 0.238 -04° 39' 49.50" 1.000E-01 0.710 F 0.120 -0.300 16.0 V 0.70 -0.01 o J26 0.50 Yes Yes
Dionysus O C 2010-04-14.96575 1.000E-05 13:10:21.550 1.500E-01 0.866 F 0.242 0.238 +27° 20' 33.60" 1.000E-01 0.710 F 0.185 0.108 17.2 V 0.70 -0.21 o J26 0.31 Yes Yes
Dionysus O C 2010-04-14.96834 1.000E-05 13:10:21.240 1.500E-01 0.866 F 0.242 -0.302 +27° 20' 35.20" 1.000E-01 0.710 F 0.185 0.209 17.5 V 0.70 0.09 o J26 0.46 Yes Yes
Dionysus O C 2010-04-14.97269 1.000E-05 13:10:20.810 1.500E-01 0.866 F 0.242 0.000 +27° 20' 37.60" 1.000E-01 0.710 F 0.185 0.094 17.3 V 0.70 -0.11 o J26 0.13 Yes Yes
Talos O C 2010-08-08.94089 1.000E-05 22:29:17.810 1.500E-01 1.000 F -0.074 0.373 +24° 41' 16.30" 1.000E-01 0.820 F 0.205 -0.618 16.6 V 0.70 0.04 o J26 0.84 Yes Yes
Talos O C 2010-08-08.94318 1.000E-05 22:29:16.630 1.500E-01 1.000 F -0.074 -0.796 +24° 41' 03.50" 1.000E-01 0.820 F 0.205 -0.592 16.8 V 0.70 0.24 o J26 1.08 Yes Yes
Talos O C 2010-08-08.94466 1.000E-05 22:29:16.040 1.500E-01 1.000 F -0.074 0.802 +24° 40' 54.80" 1.000E-01 0.820 F 0.205 -1.002 16.8 V 0.70 0.24 o J26 1.46 Yes Yes
Talos O C 2010-08-08.94788 1.000E-05 22:29:14.430 1.500E-01 1.000 F -0.074 -0.168 +24° 40' 37.90" 1.000E-01 0.820 F 0.205 0.137 16.6 V 0.70 0.04 o J26 0.24 Yes Yes
Cerberus O C 2010-08-10.93931 1.000E-05 21:00:59.340 1.500E-01 0.866 F 0.003 0.650 +36° 43' 08.90" 1.000E-01 0.710 F 0.224 0.551 16.8 V 0.70 -0.40 o J26 1.08 Yes Yes
Cerberus O C 2010-08-10.94096 1.000E-05 21:00:59.040 1.500E-01 0.866 F 0.003 0.436 +36° 43' 03.80" 1.000E-01 0.710 F 0.224 -1.036 16.5 V 0.70 -0.70 o J26 1.55 Yes Yes
Cerberus O C 2010-08-10.94602 1.000E-05 21:00:58.050 1.500E-01 0.866 F 0.003 -1.060 +36° 42' 54.00" 1.000E-01 0.710 F 0.224 -0.060 17.1 V 0.70 -0.10 o J26 1.23 Yes Yes
Cerberus O C 2010-08-12.92502 1.000E-05 20:55:40.920 1.500E-01 0.866 F -0.044 0.230 +35° 30' 36.20" 1.000E-01 0.710 F 0.250 1.192 16.4 V 0.70 -0.80 o J26 1.70 Yes Yes
Cerberus O C 2010-08-12.92600 1.000E-05 20:55:40.690 1.500E-01 0.866 F -0.044 -0.653 +35° 30' 31.50" 1.000E-01 0.710 F 0.250 -1.331 16.9 V 0.70 -0.30 o J26 2.02 Yes Yes
Cerberus O C 2010-08-12.92771 1.000E-05 20:55:40.480 1.500E-01 0.866 F -0.044 0.143 +35° 30' 29.00" 1.000E-01 0.710 F 0.250 -0.031 16.5 V 0.70 -0.70 o J26 0.17 Yes Yes
Vishnu O C K 2010-08-15.91897 1.000E-05 19:15:27.430 1.500E-01 0.500 F 0.051 -0.174 -04° 34' 33.30" 1.000E-01 0.410 F 0.299 -0.213 17.9 V 0.70 0.23 o J26 0.64 Yes Yes
Saunders O C 2010-09-02.92988 1.000E-05 21:54:26.110 1.500E-01 1.000 F -0.132 -0.385 -00° 36' 31.40" 1.000E-01 0.820 F 0.180 -0.358 16.3 V 0.70 -0.30 o J26 0.58 Yes Yes
Saunders O C 2010-09-02.93119 1.000E-05 21:54:26.340 1.500E-01 1.000 F -0.132 0.607 -00° 36' 33.20" 1.000E-01 0.820 F 0.180 -0.410 16.8 V 0.70 0.20 o J26 0.79 Yes Yes
Saunders O C 2010-09-02.93198 1.000E-05 21:54:26.450 1.500E-01 1.000 F -0.132 0.775 -00° 36' 33.70" 1.000E-01 0.820 F 0.180 0.144 16.5 V 0.70 -0.10 o J26 0.80 Yes Yes
Saunders O C 2010-09-02.93354 1.000E-05 21:54:26.600 1.500E-01 1.000 F -0.132 0.100 -00° 36' 36.00" 1.000E-01 0.820 F 0.180 -0.074 16.5 V 0.70 -0.10 o J26 0.13 Yes Yes
Epona O C 2010-12-05.83590 1.000E-05 00:57:48.330 1.500E-01 0.883 F -0.107 0.422 +08° 35' 03.80" 1.000E-01 0.693 F 0.470 -0.006 16.3 V 0.70 -0.12 c J26 0.48 Yes Yes
Epona O C 2010-12-05.83719 1.000E-05 00:57:48.500 1.500E-01 0.883 F -0.107 -0.303 +08° 35' 02.20" 1.000E-01 0.693 F 0.470 0.162 16.4 V 0.70 -0.02 c J26 0.42 Yes Yes
Epona O C 2010-12-05.84064 1.000E-05 00:57:49.130 1.500E-01 0.883 F -0.107 0.357 +08° 34' 57.90" 1.000E-01 0.693 F 0.470 0.591 16.8 V 0.70 0.38 c J26 0.94 Yes Yes
Pocahontas O C 2012-09-18.84815 1.000E-05 20:20:46.790 1.500E-01 0.866 F -0.035 0.290 +14° 20' 28.50" 1.000E-01 0.710 F 0.203 -0.212 17.0 V 0.70 -0.16 o J26 0.45 Yes Yes
Pocahontas O C 2012-09-18.85429 1.000E-05 20:20:47.310 1.500E-01 0.866 F -0.035 0.070 +14° 20' 14.00" 1.000E-01 0.710 F 0.203 0.052 18.0 V 0.70 0.84 o J26 0.11 Yes Yes
Pocahontas O C 2012-09-18.85686 1.000E-05 20:20:47.600 1.500E-01 0.866 F -0.035 1.029 +14° 20' 07.40" 1.000E-01 0.710 F 0.203 -0.367 17.0 V 0.70 -0.16 o J26 1.30 Yes Yes
2012XZ6 O C 2012-12-05.90765 1.000E-05 03:52:56.460 1.500E-01 2.000 F -0.170 0.257 +12° 40' 45.40" 1.000E-01 1.640 F 0.172 -1.295 16.1 V 0.70 -0.21 o J26 0.80 Yes Yes
2012XZ6 O C 2012-12-05.90943 1.000E-05 03:52:56.410 1.500E-01 2.000 F -0.170 -0.398 +12° 40' 06.30" 1.000E-01 1.640 F 0.172 -2.026 16.7 V 0.70 0.39 o J26 1.25 Yes Yes
2012XZ6 O C 2012-12-05.91037 1.000E-05 03:52:56.420 1.500E-01 2.000 F -0.170 -0.210 +12° 39' 46.40" 1.000E-01 1.640 F 0.172 -1.666 16.2 V 0.70 -0.11 o J26 1.02 Yes Yes
2012XZ6 O C 2012-12-05.91178 1.000E-05 03:52:56.470 1.500E-01 2.000 F -0.170 0.584 +12° 39' 16.20" 1.000E-01 1.640 F 0.172 -1.481 16.3 V 0.70 -0.01 o J26 0.95 Yes Yes
2012XZ6 O C 2012-12-05.91308 1.000E-05 03:52:56.460 1.500E-01 2.000 F -0.170 0.496 +12° 38' 49.30" 1.000E-01 1.640 F 0.172 -0.369 16.5 V 0.70 0.19 o J26 0.34 Yes Yes
2012XZ6 O C 2012-12-05.91442 1.000E-05 03:52:56.430 1.500E-01 2.000 F -0.170 0.118 +12° 38' 19.70" 1.000E-01 1.640 F 0.172 -1.100 17.2 V 0.70 0.89 o J26 0.67 Yes Yes
2012XZ6 O C 2012-12-05.91501 1.000E-05 03:52:56.420 1.500E-01 2.000 F -0.170 -0.001 +12° 38' 06.60" 1.000E-01 1.640 F 0.172 -1.491 16.6 V 0.70 0.29 o J26 0.91 Yes Yes
2012XZ6 O C 2012-12-05.91613 1.000E-05 03:52:56.400 1.500E-01 2.000 F -0.170 -0.242 +12° 37' 43.50" 1.000E-01 1.640 F 0.172 -0.466 16.6 V 0.70 0.29 o J26 0.31 Yes Yes
2012XZ6 O C 2012-12-05.91742 1.000E-05 03:52:56.490 1.500E-01 2.000 F -0.170 1.136 +12° 37' 13.60" 1.000E-01 1.640 F 0.172 -2.583 17.3 V 0.70 0.99 o J26 1.68 Yes Yes
2012XZ6 O C 2012-12-05.92005 1.000E-05 03:52:56.370 1.500E-01 2.000 F -0.170 -0.495 +12° 36' 18.10" 1.000E-01 1.640 F 0.172 -1.451 16.5 V 0.70 0.18 o J26 0.92 Yes Yes
2012XZ6 O C 2012-12-05.92167 1.000E-05 03:52:56.430 1.500E-01 2.000 F -0.170 0.463 +12° 35' 44.60" 1.000E-01 1.640 F 0.172 -0.075 16.5 V 0.70 0.18 o J26 0.24 Yes Yes
2012XZ6 O C 2012-12-05.92316 1.000E-05 03:52:56.390 1.500E-01 2.000 F -0.170 -0.049 +12° 35' 09.90" 1.000E-01 1.640 F 0.172 -2.703 17.0 V 0.70 0.68 o J26 1.65 Yes Yes
2012XZ6 O C 2012-12-05.92483 1.000E-05 03:52:56.380 1.500E-01 2.000 F -0.170 -0.112 +12° 34' 34.50" 1.000E-01 1.640 F 0.172 -2.163 16.2 V 0.70 -0.12 o J26 1.32 Yes Yes
2012XZ6 O C 2012-12-05.92595 1.000E-05 03:52:56.390 1.500E-01 2.000 F -0.170 0.091 +12° 34' 11.60" 1.000E-01 1.640 F 0.172 -0.963 16.3 V 0.70 -0.02 o J26 0.59 Yes Yes
2012XZ6 O C 2012-12-05.92681 1.000E-05 03:52:56.390 1.500E-01 2.000 F -0.170 0.134 +12° 33' 51.80" 1.000E-01 1.640 F 0.172 -2.259 16.8 V 0.70 0.48 o J26 1.38 Yes Yes
2012XZ6 O C 2012-12-05.92878 1.000E-05 03:52:56.360 1.500E-01 2.000 F -0.170 -0.204 +12° 33' 08.80" 1.000E-01 1.640 F 0.172 -2.879 17.1 V 0.70 0.78 o J26 1.76 Yes Yes
1998QR52 O C 2015-09-07.87785 1.000E-05 20:29:21.330 1.500E-01 0.866 F -0.010 0.204 +02° 05' 06.00" 1.000E-01 0.710 F 0.186 -0.082 18.0 V 0.70 -0.80 o J26 0.26 Yes Yes
1998QR52 O C 2015-09-07.87910 1.000E-05 20:29:21.100 1.500E-01 0.866 F -0.010 -0.938 +02° 05' 07.00" 1.000E-01 0.710 F 0.186 0.355 18.2 V 0.70 -0.60 o J26 1.19 Yes Yes
1998QR52 O C 2015-09-07.88420 1.000E-05 20:29:20.510 1.500E-01 0.866 F -0.010 -0.374 +02° 05' 09.70" 1.000E-01 0.710 F 0.186 0.760 17.9 V 0.70 -0.90 o J26 1.16 Yes Yes
Eros O C 2019-02-25.92873 1.000E-05 06:19:26.020 1.500E-01 0.866 F -0.120 -0.271 +07° 54' 34.70" 1.000E-01 0.710 F 0.093 -0.868 10.6 V 0.70 0.82 o J26 1.26 Yes Yes
Eros O C 2019-02-25.93280 1.000E-05 06:19:26.700 1.500E-01 0.866 F -0.120 -0.083 +07° 54' 28.00" 1.000E-01 0.710 F 0.093 -0.191 10.4 V 0.70 0.62 o J26 0.29 Yes Yes
Eros O C 2019-02-25.93642 1.000E-05 06:19:27.300 1.500E-01 0.866 F -0.120 0.007 +07° 54' 21.20" 1.000E-01 0.710 F 0.093 -0.429 10.3 V 0.70 0.52 o J26 0.60 Yes Yes

[1-79]





This Web Site has been visited 113418 times since

and this Page has been visited 905 times since 2011/07/08